ADDS METAR Data INFO
IDs: Format: Raw Decoded Include TAF

Data at: 1158 UTC 23 Jun 2018

KIOW 231152Z AUTO 00000KT 10SM CLR 18/16 A2978 RMK AO2 SLP082 70001 T01780161 10189 20150 53002
KIOW 231052Z AUTO 00000KT 10SM FEW036 16/15 A2978 RMK AO2 SLP083 T01610150
KIOW 230952Z AUTO 00000KT 10SM CLR 16/14 A2977 RMK AO2 SLP078 T01610144
KIOW 230852Z AUTO 35004KT 10SM FEW041 18/15 A2978 RMK AO2 SLP079 T01780150 58005
KIOW 230752Z AUTO 35007KT 10SM FEW043 OVC055 19/15 A2980 RMK AO2 SLP086 T01890150
KIOW 230652Z AUTO 30006KT 10SM OVC034 18/16 A2982 RMK AO2 SLP096 T01830156
KIOW 230552Z AUTO 00000KT 10SM BKN055 18/16 A2979 RMK AO2 SLP085 T01830156 10222 20178 402390172 53002
KIOW 230452Z AUTO 00000KT 10SM OVC045 19/16 A2978 RMK AO2 SLP082 T01890156
KIOW 230352Z AUTO 04007KT 10SM BKN045 OVC055 19/16 A2979 RMK AO2 SLP083 T01890156
KIOW 230252Z AUTO 02005KT 10SM OVC037 20/15 A2978 RMK AO2 SLP083 T02000150 53004
KIOW 230152Z AUTO 03005KT 10SM OVC038 20/15 A2977 RMK AO2 SLP078 T02000150
KIOW 230052Z AUTO 03014G22KT 10SM FEW026 BKN032 BKN055 21/15 A2978 RMK AO2 SLP081 T02110150
KIOW 222352Z AUTO 04006KT 10SM FEW037 OVC048 22/16 A2977 RMK AO2 SLP079 T02170161 10239 20206 55006
KIOW 222252Z AUTO 01009KT 10SM SCT031 BKN044 OVC055 23/17 A2977 RMK AO2 SLP077 T02280167
KIOW 222152Z AUTO 02005KT 10SM FEW041 BKN050 OVC065 23/17 A2978 RMK AO2 SLP081 T02280172
KIOW 222052Z AUTO 02006KT 10SM BKN038 OVC045 22/17 A2979 RMK AO2 SLP085 T02220167 56006
KIOW 222035Z AUTO 02008KT 10SM SCT028 OVC036 22/17 A2980 RMK AO2 T02170167
KIOW 222011Z AUTO 01010KT 10SM BKN028 OVC036 22/17 A2979 RMK AO2 T02170167
KIOW 221952Z AUTO 01009KT 10SM FEW024 OVC038 22/17 A2979 RMK AO2 SLP087 T02170167
KIOW 221852Z AUTO 03011KT 10SM SCT022 BKN036 OVC065 21/17 A2980 RMK AO2 SLP090 T02110167
KIOW 221752Z AUTO 04011KT 10SM FEW017 OVC047 21/17 A2981 RMK AO2 SLP092 60001 T02060167 10206 20172 58000
KIOW 221707Z AUTO 03010KT 10SM FEW016 SCT027 OVC036 18/16 A2982 RMK AO2 T01830161
KIOW 221652Z AUTO 03009KT 10SM BKN018 BKN027 OVC034 18/16 A2982 RMK AO2 SLP096 T01830156
KIOW 221552Z AUTO 10SM OVC021 19/16 A2982 RMK AO2 SLP095 T01890156
KIOW 221452Z AUTO 03010KT 10SM BKN023 OVC030 19/16 A2981 RMK AO2 SLP093 60001 T01890161 53000
KIOW 221422Z AUTO 03011G17KT 10SM BKN028 OVC033 19/16 A2981 RMK AO2 T01890161
KIOW 221402Z AUTO 02006KT 10SM SCT022 OVC030 18/17 A2981 RMK AO2 T01830167
KIOW 221352Z AUTO 02008KT 10SM BKN022 OVC030 18/16 A2981 RMK AO2 RAE07B23E33 SLP091 P0000 T01780161
KIOW 221252Z AUTO 01009KT 5SM -RA BR FEW009 BKN015 OVC020 17/16 A2981 RMK AO2 RAB00 SLP093 P0001 T01720161
KIOW 221152Z AUTO 36008KT 10SM FEW015 BKN026 OVC038 18/16 A2981 RMK AO2 RAB1056E27 SLP093 P0000 60003 70177 T01780161 10178 20172 51009
KIOW 221052Z AUTO 02008KT 10SM BKN019 BKN026 OVC032 17/16 A2981 RMK AO2 SLP091 P0001 T01720161
KIOW 220952Z AUTO 03008KT 10SM SCT011 OVC030 17/16 A2979 RMK AO2 RAE35 SLP086 P0000 T01720161
KIOW 220950Z AUTO 02008KT 10SM SCT011 OVC030 17/16 A2979 RMK AO2 RAE35 P0000
KIOW 220852Z AUTO 05009KT 6SM -RA BR OVC011 17/16 A2979 RMK AO2 RAE07B50 SLP084 P0001 60002 T01720161 55001
KIOW 220807Z AUTO 04010KT 10SM OVC010 17/16 A2978 RMK AO2 RAE07 P0001 T01720161
KIOW 220752Z AUTO 04009G17KT 6SM -RA BR BKN008 OVC013 17/16 A2978 RMK AO2 RAB08 CIG 006V010 SLP081 P0001 T01720161
KIOW 220747Z AUTO 03011KT 9SM -RA OVC010 17/16 A2978 RMK AO2 RAB08 CIG 006V013 P0001
KIOW 220652Z AUTO 03010KT 7SM OVC008 17/16 A2979 RMK AO2 CIG 006V011 SLP085 T01720161
KIOW 220552Z AUTO 04009KT 10SM OVC009 17/16 A2979 RMK AO2 RAB22E42 CIG 007V012 SLP086 P0000 60000 T01720161 10200 20172 402440172 50002
KIOW 220525Z AUTO 03009KT 7SM -RA OVC009 18/16 A2980 RMK AO2 RAB22 P0000 T01780161
KIOW 220452Z AUTO 03008KT 10SM OVC010 18/16 A2980 RMK AO2 SLP088 T01780161
KIOW 220352Z AUTO 04008G16KT 10SM OVC010 18/16 A2979 RMK AO2 SLP086 T01780161
KIOW 220303Z AUTO 04008KT 10SM OVC010 18/16 A2979 RMK AO2 T01780161
KIOW 220252Z AUTO 05009KT 10SM OVC009 18/16 A2979 RMK AO2 SLP083 T01780161 53015
KIOW 220214Z AUTO 03013KT 10SM OVC009 18/16 A2977 RMK AO2 T01780161
KIOW 220152Z AUTO 04012KT 10SM OVC010 18/17 A2977 RMK AO2 SLP076 T01830167
KIOW 220052Z AUTO 05009KT 10SM OVC011 19/18 A2975 RMK AO2 SLP071 T01940178
KIOW 220003Z AUTO 04010KT 10SM OVC011 20/18 A2974 RMK AO2 CIG 009V016 T02000183